sensor_id;sensor_type;location;lat;lon;timestamp;P1;durP1;ratioP1;P2;durP2;ratioP2
56481;SDS011;42384;45.186;19.958;2022-12-05T00:00:56;7.68;;;4.35;;
56481;SDS011;42384;45.186;19.958;2022-12-05T00:03:24;8.40;;;4.32;;
56481;SDS011;42384;45.186;19.958;2022-12-05T00:05:51;8.15;;;4.35;;
56481;SDS011;42384;45.186;19.958;2022-12-05T00:08:17;9.75;;;3.83;;
56481;SDS011;42384;45.186;19.958;2022-12-05T00:10:43;7.38;;;4.22;;
56481;SDS011;42384;45.186;19.958;2022-12-05T00:13:10;6.47;;;3.50;;
56481;SDS011;42384;45.186;19.958;2022-12-05T00:15:39;7.60;;;4.27;;
56481;SDS011;42384;45.186;19.958;2022-12-05T00:18:05;7.68;;;3.90;;
56481;SDS011;42384;45.186;19.958;2022-12-05T00:20:32;6.93;;;4.00;;
56481;SDS011;42384;45.186;19.958;2022-12-05T00:22:59;6.25;;;3.92;;
56481;SDS011;42384;45.186;19.958;2022-12-05T00:25:25;9.45;;;3.95;;
56481;SDS011;42384;45.186;19.958;2022-12-05T00:27:51;7.13;;;3.87;;
56481;SDS011;42384;45.186;19.958;2022-12-05T00:30:18;7.53;;;4.03;;
56481;SDS011;42384;45.186;19.958;2022-12-05T00:32:44;6.32;;;3.72;;
56481;SDS011;42384;45.186;19.958;2022-12-05T00:35:10;7.55;;;3.72;;
56481;SDS011;42384;45.186;19.958;2022-12-05T00:37:36;8.68;;;4.05;;
56481;SDS011;42384;45.186;19.958;2022-12-05T00:40:03;5.85;;;3.63;;
56481;SDS011;42384;45.186;19.958;2022-12-05T00:42:29;6.93;;;3.30;;
56481;SDS011;42384;45.186;19.958;2022-12-05T00:44:55;6.85;;;3.90;;
56481;SDS011;42384;45.186;19.958;2022-12-05T00:47:22;8.10;;;4.13;;
56481;SDS011;42384;45.186;19.958;2022-12-05T00:49:48;6.55;;;3.72;;
56481;SDS011;42384;45.186;19.958;2022-12-05T00:52:14;5.55;;;3.20;;
56481;SDS011;42384;45.186;19.958;2022-12-05T00:54:40;8.03;;;3.73;;
56481;SDS011;42384;45.186;19.958;2022-12-05T00:57:07;7.47;;;3.93;;
56481;SDS011;42384;45.186;19.958;2022-12-05T00:59:33;8.57;;;4.28;;
56481;SDS011;42384;45.186;19.958;2022-12-05T01:01:59;6.50;;;3.87;;
56481;SDS011;42384;45.186;19.958;2022-12-05T01:04:26;7.03;;;3.77;;
56481;SDS011;42384;45.186;19.958;2022-12-05T01:06:53;7.00;;;3.88;;
56481;SDS011;42384;45.186;19.958;2022-12-05T01:09:20;5.75;;;3.55;;
56481;SDS011;42384;45.186;19.958;2022-12-05T01:11:46;9.63;;;4.78;;
56481;SDS011;42384;45.186;19.958;2022-12-05T01:14:14;9.20;;;4.60;;
56481;SDS011;42384;45.186;19.958;2022-12-05T01:19:09;7.80;;;3.85;;
56481;SDS011;42384;45.186;19.958;2022-12-05T01:21:36;6.63;;;3.90;;
56481;SDS011;42384;45.186;19.958;2022-12-05T01:24:02;7.82;;;4.15;;
56481;SDS011;42384;45.186;19.958;2022-12-05T01:26:28;5.25;;;3.20;;
56481;SDS011;42384;45.186;19.958;2022-12-05T01:28:55;8.80;;;4.20;;
56481;SDS011;42384;45.186;19.958;2022-12-05T01:31:23;7.10;;;4.07;;
56481;SDS011;42384;45.186;19.958;2022-12-05T01:33:50;7.53;;;3.53;;
56481;SDS011;42384;45.186;19.958;2022-12-05T01:36:16;6.65;;;3.72;;
56481;SDS011;42384;45.186;19.958;2022-12-05T01:38:42;7.82;;;3.60;;
56481;SDS011;42384;45.186;19.958;2022-12-05T01:41:14;7.00;;;4.18;;
56481;SDS011;42384;45.186;19.958;2022-12-05T01:43:54;6.28;;;3.55;;
56481;SDS011;42384;45.186;19.958;2022-12-05T01:46:20;8.23;;;3.88;;
56481;SDS011;42384;45.186;19.958;2022-12-05T01:48:47;7.07;;;3.40;;
56481;SDS011;42384;45.186;19.958;2022-12-05T01:51:13;6.22;;;3.35;;
56481;SDS011;42384;45.186;19.958;2022-12-05T01:53:39;8.20;;;3.70;;
56481;SDS011;42384;45.186;19.958;2022-12-05T01:56:06;6.63;;;2.95;;
56481;SDS011;42384;45.186;19.958;2022-12-05T01:58:34;8.57;;;3.90;;
56481;SDS011;42384;45.186;19.958;2022-12-05T02:01:01;6.30;;;3.47;;
56481;SDS011;42384;45.186;19.958;2022-12-05T02:03:28;5.40;;;3.00;;
56481;SDS011;42384;45.186;19.958;2022-12-05T02:05:55;5.67;;;2.70;;
56481;SDS011;42384;45.186;19.958;2022-12-05T02:08:23;7.50;;;3.60;;
56481;SDS011;42384;45.186;19.958;2022-12-05T02:10:53;5.70;;;3.03;;
56481;SDS011;42384;45.186;19.958;2022-12-05T02:16:13;6.57;;;3.05;;
56481;SDS011;42384;45.186;19.958;2022-12-05T02:29:11;7.47;;;3.25;;
56481;SDS011;42384;45.186;19.958;2022-12-05T02:31:43;7.30;;;2.90;;
56481;SDS011;42384;45.186;19.958;2022-12-05T02:36:49;6.28;;;2.65;;
56481;SDS011;42384;45.186;19.958;2022-12-05T02:39:39;6.47;;;3.33;;
56481;SDS011;42384;45.186;19.958;2022-12-05T02:42:42;5.22;;;2.75;;
56481;SDS011;42384;45.186;19.958;2022-12-05T02:45:00;5.22;;;2.90;;
56481;SDS011;42384;45.186;19.958;2022-12-05T02:47:32;7.45;;;3.40;;
56481;SDS011;42384;45.186;19.958;2022-12-05T02:49:59;5.30;;;2.85;;
56481;SDS011;42384;45.186;19.958;2022-12-05T02:52:26;5.38;;;2.75;;
56481;SDS011;42384;45.186;19.958;2022-12-05T02:54:52;6.03;;;3.13;;
56481;SDS011;42384;45.186;19.958;2022-12-05T02:57:20;5.03;;;2.95;;
56481;SDS011;42384;45.186;19.958;2022-12-05T02:59:49;6.22;;;2.90;;
56481;SDS011;42384;45.186;19.958;2022-12-05T03:02:31;6.93;;;3.28;;
56481;SDS011;42384;45.186;19.958;2022-12-05T03:05:16;6.57;;;3.33;;
56481;SDS011;42384;45.186;19.958;2022-12-05T03:07:45;5.57;;;3.10;;
56481;SDS011;42384;45.186;19.958;2022-12-05T03:10:13;6.15;;;3.25;;
56481;SDS011;42384;45.186;19.958;2022-12-05T03:12:43;7.28;;;3.50;;
56481;SDS011;42384;45.186;19.958;2022-12-05T03:15:16;7.28;;;3.13;;
56481;SDS011;42384;45.186;19.958;2022-12-05T03:17:46;7.05;;;3.25;;
56481;SDS011;42384;45.186;19.958;2022-12-05T03:20:27;6.70;;;3.67;;
56481;SDS011;42384;45.186;19.958;2022-12-05T03:25:21;6.63;;;3.33;;
56481;SDS011;42384;45.186;19.958;2022-12-05T03:27:52;6.00;;;3.50;;
56481;SDS011;42384;45.186;19.958;2022-12-05T03:30:22;6.90;;;3.60;;
56481;SDS011;42384;45.186;19.958;2022-12-05T03:33:02;7.63;;;3.45;;
56481;SDS011;42384;45.186;19.958;2022-12-05T03:35:34;5.90;;;3.25;;
56481;SDS011;42384;45.186;19.958;2022-12-05T03:43:06;6.90;;;3.60;;
56481;SDS011;42384;45.186;19.958;2022-12-05T03:45:38;5.95;;;2.83;;
56481;SDS011;42384;45.186;19.958;2022-12-05T03:48:41;6.13;;;3.05;;
56481;SDS011;42384;45.186;19.958;2022-12-05T03:51:00;9.02;;;4.30;;
56481;SDS011;42384;45.186;19.958;2022-12-05T03:53:27;5.97;;;3.22;;
56481;SDS011;42384;45.186;19.958;2022-12-05T03:55:59;7.25;;;3.35;;
56481;SDS011;42384;45.186;19.958;2022-12-05T03:58:30;5.78;;;3.30;;
56481;SDS011;42384;45.186;19.958;2022-12-05T04:00:58;6.70;;;3.38;;
56481;SDS011;42384;45.186;19.958;2022-12-05T04:03:31;7.88;;;3.53;;
56481;SDS011;42384;45.186;19.958;2022-12-05T04:06:03;6.77;;;3.10;;
56481;SDS011;42384;45.186;19.958;2022-12-05T04:08:32;11.95;;;3.13;;
56481;SDS011;42384;45.186;19.958;2022-12-05T04:11:02;7.40;;;3.30;;
56481;SDS011;42384;45.186;19.958;2022-12-05T04:14:15;5.47;;;3.25;;
56481;SDS011;42384;45.186;19.958;2022-12-05T04:16:18;8.40;;;3.63;;
56481;SDS011;42384;45.186;19.958;2022-12-05T04:19:08;7.33;;;3.10;;
56481;SDS011;42384;45.186;19.958;2022-12-05T04:21:39;4.60;;;2.55;;
56481;SDS011;42384;45.186;19.958;2022-12-05T04:24:08;6.28;;;3.15;;
56481;SDS011;42384;45.186;19.958;2022-12-05T04:26:56;7.60;;;2.88;;
56481;SDS011;42384;45.186;19.958;2022-12-05T04:29:28;5.40;;;3.03;;
56481;SDS011;42384;45.186;19.958;2022-12-05T04:31:57;6.43;;;3.33;;
56481;SDS011;42384;45.186;19.958;2022-12-05T04:34:25;6.10;;;3.17;;
56481;SDS011;42384;45.186;19.958;2022-12-05T04:36:55;6.40;;;3.30;;
56481;SDS011;42384;45.186;19.958;2022-12-05T04:39:26;7.20;;;3.00;;
56481;SDS011;42384;45.186;19.958;2022-12-05T04:42:01;6.90;;;3.42;;
56481;SDS011;42384;45.186;19.958;2022-12-05T04:44:30;5.95;;;3.42;;
56481;SDS011;42384;45.186;19.958;2022-12-05T04:46:58;7.50;;;3.33;;
56481;SDS011;42384;45.186;19.958;2022-12-05T04:49:26;6.55;;;3.30;;
56481;SDS011;42384;45.186;19.958;2022-12-05T04:51:54;5.10;;;2.95;;
56481;SDS011;42384;45.186;19.958;2022-12-05T04:54:31;6.30;;;2.88;;
56481;SDS011;42384;45.186;19.958;2022-12-05T04:57:01;6.32;;;2.90;;
56481;SDS011;42384;45.186;19.958;2022-12-05T04:59:30;8.43;;;4.13;;
56481;SDS011;42384;45.186;19.958;2022-12-05T05:01:57;5.30;;;2.78;;
56481;SDS011;42384;45.186;19.958;2022-12-05T05:04:35;5.95;;;3.13;;
56481;SDS011;42384;45.186;19.958;2022-12-05T05:07:09;7.45;;;3.63;;
56481;SDS011;42384;45.186;19.958;2022-12-05T05:09:36;7.60;;;3.17;;
56481;SDS011;42384;45.186;19.958;2022-12-05T05:12:03;5.85;;;3.20;;
56481;SDS011;42384;45.186;19.958;2022-12-05T05:14:29;6.00;;;2.88;;
56481;SDS011;42384;45.186;19.958;2022-12-05T05:16:56;5.28;;;2.80;;
56481;SDS011;42384;45.186;19.958;2022-12-05T05:19:22;6.03;;;3.05;;
56481;SDS011;42384;45.186;19.958;2022-12-05T05:21:49;4.88;;;2.90;;
56481;SDS011;42384;45.186;19.958;2022-12-05T05:24:16;8.25;;;3.90;;
56481;SDS011;42384;45.186;19.958;2022-12-05T05:26:43;6.50;;;3.13;;
56481;SDS011;42384;45.186;19.958;2022-12-05T05:29:10;6.47;;;3.50;;
56481;SDS011;42384;45.186;19.958;2022-12-05T05:31:37;6.28;;;3.33;;
56481;SDS011;42384;45.186;19.958;2022-12-05T05:34:03;5.82;;;3.15;;
56481;SDS011;42384;45.186;19.958;2022-12-05T05:36:30;5.75;;;3.25;;
56481;SDS011;42384;45.186;19.958;2022-12-05T05:38:57;4.83;;;2.80;;
56481;SDS011;42384;45.186;19.958;2022-12-05T05:41:25;6.05;;;3.05;;
56481;SDS011;42384;45.186;19.958;2022-12-05T05:43:52;5.20;;;3.17;;
56481;SDS011;42384;45.186;19.958;2022-12-05T05:46:19;6.30;;;3.00;;
56481;SDS011;42384;45.186;19.958;2022-12-05T05:48:46;7.45;;;3.58;;
56481;SDS011;42384;45.186;19.958;2022-12-05T05:51:13;6.13;;;3.58;;
56481;SDS011;42384;45.186;19.958;2022-12-05T05:53:40;7.57;;;4.05;;
56481;SDS011;42384;45.186;19.958;2022-12-05T05:56:07;4.65;;;2.60;;
56481;SDS011;42384;45.186;19.958;2022-12-05T06:01:03;5.82;;;3.17;;
56481;SDS011;42384;45.186;19.958;2022-12-05T06:03:30;5.63;;;3.38;;
56481;SDS011;42384;45.186;19.958;2022-12-05T06:05:57;5.25;;;2.95;;
56481;SDS011;42384;45.186;19.958;2022-12-05T06:08:23;6.68;;;3.53;;
56481;SDS011;42384;45.186;19.958;2022-12-05T06:10:50;6.53;;;3.80;;
56481;SDS011;42384;45.186;19.958;2022-12-05T06:13:16;6.70;;;3.80;;
56481;SDS011;42384;45.186;19.958;2022-12-05T06:15:42;6.40;;;3.83;;
56481;SDS011;42384;45.186;19.958;2022-12-05T06:18:08;7.70;;;3.17;;
56481;SDS011;42384;45.186;19.958;2022-12-05T06:20:34;7.32;;;4.13;;
56481;SDS011;42384;45.186;19.958;2022-12-05T06:23:01;8.13;;;3.70;;
56481;SDS011;42384;45.186;19.958;2022-12-05T06:25:27;6.07;;;3.65;;
56481;SDS011;42384;45.186;19.958;2022-12-05T06:27:53;7.90;;;3.60;;
56481;SDS011;42384;45.186;19.958;2022-12-05T06:30:19;5.43;;;2.88;;
56481;SDS011;42384;45.186;19.958;2022-12-05T06:32:46;5.30;;;2.97;;
56481;SDS011;42384;45.186;19.958;2022-12-05T06:35:12;5.10;;;2.95;;
56481;SDS011;42384;45.186;19.958;2022-12-05T06:37:42;7.15;;;4.05;;
56481;SDS011;42384;45.186;19.958;2022-12-05T06:40:08;7.20;;;3.75;;
56481;SDS011;42384;45.186;19.958;2022-12-05T06:42:35;5.00;;;3.03;;
56481;SDS011;42384;45.186;19.958;2022-12-05T06:45:01;8.65;;;4.15;;
56481;SDS011;42384;45.186;19.958;2022-12-05T06:47:28;7.57;;;3.78;;
56481;SDS011;42384;45.186;19.958;2022-12-05T06:49:54;7.38;;;3.83;;
56481;SDS011;42384;45.186;19.958;2022-12-05T06:52:20;5.15;;;3.08;;
56481;SDS011;42384;45.186;19.958;2022-12-05T06:54:47;6.45;;;3.90;;
56481;SDS011;42384;45.186;19.958;2022-12-05T06:57:13;6.75;;;3.90;;
56481;SDS011;42384;45.186;19.958;2022-12-05T06:59:39;6.93;;;3.20;;
56481;SDS011;42384;45.186;19.958;2022-12-05T07:02:06;5.07;;;3.13;;
56481;SDS011;42384;45.186;19.958;2022-12-05T07:04:32;8.17;;;4.00;;
56481;SDS011;42384;45.186;19.958;2022-12-05T07:06:59;7.60;;;3.22;;
56481;SDS011;42384;45.186;19.958;2022-12-05T07:12:11;7.15;;;4.07;;
56481;SDS011;42384;45.186;19.958;2022-12-05T07:14:37;5.72;;;3.50;;
56481;SDS011;42384;45.186;19.958;2022-12-05T07:17:03;6.97;;;3.70;;
56481;SDS011;42384;45.186;19.958;2022-12-05T07:19:30;7.68;;;3.42;;
56481;SDS011;42384;45.186;19.958;2022-12-05T07:21:56;6.83;;;3.40;;
56481;SDS011;42384;45.186;19.958;2022-12-05T07:24:22;6.40;;;3.33;;
56481;SDS011;42384;45.186;19.958;2022-12-05T07:26:49;7.10;;;4.32;;
56481;SDS011;42384;45.186;19.958;2022-12-05T07:29:15;6.57;;;4.00;;
56481;SDS011;42384;45.186;19.958;2022-12-05T07:31:41;7.15;;;3.85;;
56481;SDS011;42384;45.186;19.958;2022-12-05T07:34:08;6.78;;;3.78;;
56481;SDS011;42384;45.186;19.958;2022-12-05T07:36:34;6.85;;;3.80;;
56481;SDS011;42384;45.186;19.958;2022-12-05T07:39:00;10.23;;;3.70;;
56481;SDS011;42384;45.186;19.958;2022-12-05T07:41:28;4.97;;;3.30;;
56481;SDS011;42384;45.186;19.958;2022-12-05T07:43:55;7.82;;;3.78;;
56481;SDS011;42384;45.186;19.958;2022-12-05T07:48:48;5.40;;;3.08;;
56481;SDS011;42384;45.186;19.958;2022-12-05T07:51:15;5.55;;;3.17;;
56481;SDS011;42384;45.186;19.958;2022-12-05T07:53:41;7.10;;;4.15;;
56481;SDS011;42384;45.186;19.958;2022-12-05T07:56:09;7.35;;;4.22;;
56481;SDS011;42384;45.186;19.958;2022-12-05T07:58:36;7.45;;;3.60;;
56481;SDS011;42384;45.186;19.958;2022-12-05T08:01:10;8.77;;;3.70;;
56481;SDS011;42384;45.186;19.958;2022-12-05T08:03:37;9.02;;;4.03;;
56481;SDS011;42384;45.186;19.958;2022-12-05T08:06:04;5.15;;;3.38;;
56481;SDS011;42384;45.186;19.958;2022-12-05T08:08:30;6.05;;;3.40;;
56481;SDS011;42384;45.186;19.958;2022-12-05T08:11:07;6.00;;;3.90;;
56481;SDS011;42384;45.186;19.958;2022-12-05T08:13:34;7.18;;;3.92;;
56481;SDS011;42384;45.186;19.958;2022-12-05T08:16:05;7.75;;;4.60;;
56481;SDS011;42384;45.186;19.958;2022-12-05T08:18:32;6.90;;;3.55;;
56481;SDS011;42384;45.186;19.958;2022-12-05T08:21:05;8.30;;;4.20;;
56481;SDS011;42384;45.186;19.958;2022-12-05T08:23:32;7.93;;;4.35;;
56481;SDS011;42384;45.186;19.958;2022-12-05T08:26:03;9.82;;;3.92;;
56481;SDS011;42384;45.186;19.958;2022-12-05T08:28:29;8.00;;;4.47;;
56481;SDS011;42384;45.186;19.958;2022-12-05T08:31:01;8.85;;;4.05;;
56481;SDS011;42384;45.186;19.958;2022-12-05T08:33:27;8.27;;;4.15;;
56481;SDS011;42384;45.186;19.958;2022-12-05T08:35:54;9.57;;;4.65;;
56481;SDS011;42384;45.186;19.958;2022-12-05T08:38:20;8.63;;;4.55;;
56481;SDS011;42384;45.186;19.958;2022-12-05T08:40:46;7.50;;;4.18;;
56481;SDS011;42384;45.186;19.958;2022-12-05T08:43:12;6.75;;;3.85;;
56481;SDS011;42384;45.186;19.958;2022-12-05T08:45:38;8.98;;;4.43;;
56481;SDS011;42384;45.186;19.958;2022-12-05T08:48:05;7.70;;;4.30;;
56481;SDS011;42384;45.186;19.958;2022-12-05T08:50:31;9.80;;;4.82;;
56481;SDS011;42384;45.186;19.958;2022-12-05T08:52:58;8.20;;;4.77;;
56481;SDS011;42384;45.186;19.958;2022-12-05T08:55:24;7.23;;;4.20;;
56481;SDS011;42384;45.186;19.958;2022-12-05T08:57:50;9.10;;;4.97;;
56481;SDS011;42384;45.186;19.958;2022-12-05T09:00:16;7.22;;;4.03;;
56481;SDS011;42384;45.186;19.958;2022-12-05T09:02:43;7.93;;;4.60;;
56481;SDS011;42384;45.186;19.958;2022-12-05T09:05:09;9.18;;;4.88;;
56481;SDS011;42384;45.186;19.958;2022-12-05T09:07:35;8.20;;;5.17;;
56481;SDS011;42384;45.186;19.958;2022-12-05T09:10:02;6.70;;;4.78;;
56481;SDS011;42384;45.186;19.958;2022-12-05T09:12:28;10.53;;;4.97;;
56481;SDS011;42384;45.186;19.958;2022-12-05T09:14:54;7.45;;;4.95;;
56481;SDS011;42384;45.186;19.958;2022-12-05T09:17:20;8.77;;;5.00;;
56481;SDS011;42384;45.186;19.958;2022-12-05T09:19:51;8.20;;;4.93;;
56481;SDS011;42384;45.186;19.958;2022-12-05T09:22:17;9.55;;;5.57;;
56481;SDS011;42384;45.186;19.958;2022-12-05T09:24:43;9.68;;;4.95;;
56481;SDS011;42384;45.186;19.958;2022-12-05T09:27:09;9.67;;;5.53;;
56481;SDS011;42384;45.186;19.958;2022-12-05T09:29:36;10.88;;;5.82;;
56481;SDS011;42384;45.186;19.958;2022-12-05T09:32:02;9.60;;;5.55;;
56481;SDS011;42384;45.186;19.958;2022-12-05T09:34:28;9.45;;;5.45;;
56481;SDS011;42384;45.186;19.958;2022-12-05T09:36:55;12.38;;;5.50;;
56481;SDS011;42384;45.186;19.958;2022-12-05T09:39:22;11.02;;;6.03;;
56481;SDS011;42384;45.186;19.958;2022-12-05T09:41:55;10.55;;;5.50;;
56481;SDS011;42384;45.186;19.958;2022-12-05T09:44:46;12.60;;;6.25;;
56481;SDS011;42384;45.186;19.958;2022-12-05T09:47:31;13.85;;;6.55;;
56481;SDS011;42384;45.186;19.958;2022-12-05T09:50:02;11.98;;;6.60;;
56481;SDS011;42384;45.186;19.958;2022-12-05T09:52:33;13.18;;;7.28;;
56481;SDS011;42384;45.186;19.958;2022-12-05T09:55:05;12.10;;;6.25;;
56481;SDS011;42384;45.186;19.958;2022-12-05T09:57:35;11.95;;;6.80;;
56481;SDS011;42384;45.186;19.958;2022-12-05T10:00:04;10.68;;;6.70;;
56481;SDS011;42384;45.186;19.958;2022-12-05T10:02:35;14.20;;;7.00;;
56481;SDS011;42384;45.186;19.958;2022-12-05T10:05:07;13.07;;;6.85;;
56481;SDS011;42384;45.186;19.958;2022-12-05T10:07:49;12.15;;;6.72;;
56481;SDS011;42384;45.186;19.958;2022-12-05T10:13:11;14.68;;;7.30;;
56481;SDS011;42384;45.186;19.958;2022-12-05T10:15:39;13.10;;;7.32;;
56481;SDS011;42384;45.186;19.958;2022-12-05T10:20:56;12.57;;;7.60;;
56481;SDS011;42384;45.186;19.958;2022-12-05T10:23:26;16.95;;;7.10;;
56481;SDS011;42384;45.186;19.958;2022-12-05T10:25:57;11.68;;;6.93;;
56481;SDS011;42384;45.186;19.958;2022-12-05T10:28:27;11.52;;;7.32;;
56481;SDS011;42384;45.186;19.958;2022-12-05T10:30:55;11.65;;;7.15;;
56481;SDS011;42384;45.186;19.958;2022-12-05T10:33:23;11.27;;;6.85;;
56481;SDS011;42384;45.186;19.958;2022-12-05T10:35:52;13.55;;;7.50;;
56481;SDS011;42384;45.186;19.958;2022-12-05T10:38:22;11.00;;;6.43;;
56481;SDS011;42384;45.186;19.958;2022-12-05T10:40:50;12.90;;;6.63;;
56481;SDS011;42384;45.186;19.958;2022-12-05T10:43:22;12.85;;;6.82;;
56481;SDS011;42384;45.186;19.958;2022-12-05T10:45:49;12.63;;;6.15;;
56481;SDS011;42384;45.186;19.958;2022-12-05T10:48:16;13.35;;;6.32;;
56481;SDS011;42384;45.186;19.958;2022-12-05T10:50:43;12.45;;;5.97;;
56481;SDS011;42384;45.186;19.958;2022-12-05T10:53:17;12.70;;;7.20;;
56481;SDS011;42384;45.186;19.958;2022-12-05T10:55:45;15.70;;;7.28;;
56481;SDS011;42384;45.186;19.958;2022-12-05T10:58:15;12.05;;;7.07;;
56481;SDS011;42384;45.186;19.958;2022-12-05T11:00:47;11.50;;;6.60;;
56481;SDS011;42384;45.186;19.958;2022-12-05T11:03:23;10.93;;;6.95;;
56481;SDS011;42384;45.186;19.958;2022-12-05T11:05:50;16.70;;;6.63;;
56481;SDS011;42384;45.186;19.958;2022-12-05T11:10:43;12.00;;;7.45;;
56481;SDS011;42384;45.186;19.958;2022-12-05T11:13:15;13.98;;;6.43;;
56481;SDS011;42384;45.186;19.958;2022-12-05T11:15:45;11.05;;;6.55;;
56481;SDS011;42384;45.186;19.958;2022-12-05T11:18:24;10.45;;;6.57;;
56481;SDS011;42384;45.186;19.958;2022-12-05T11:20:52;11.63;;;6.50;;
56481;SDS011;42384;45.186;19.958;2022-12-05T11:23:28;14.95;;;7.70;;
56481;SDS011;42384;45.186;19.958;2022-12-05T11:25:55;11.65;;;6.90;;
56481;SDS011;42384;45.186;19.958;2022-12-05T11:28:23;12.55;;;6.03;;
56481;SDS011;42384;45.186;19.958;2022-12-05T11:30:57;10.80;;;6.97;;
56481;SDS011;42384;45.186;19.958;2022-12-05T11:33:24;14.07;;;6.38;;
56481;SDS011;42384;45.186;19.958;2022-12-05T11:35:52;14.13;;;7.40;;
56481;SDS011;42384;45.186;19.958;2022-12-05T11:38:20;12.38;;;6.70;;
56481;SDS011;42384;45.186;19.958;2022-12-05T11:46:27;15.30;;;7.50;;
56481;SDS011;42384;45.186;19.958;2022-12-05T11:48:51;13.82;;;7.72;;
56481;SDS011;42384;45.186;19.958;2022-12-05T11:51:29;12.07;;;7.45;;
56481;SDS011;42384;45.186;19.958;2022-12-05T12:01:53;13.68;;;7.75;;
56481;SDS011;42384;45.186;19.958;2022-12-05T12:14:57;19.90;;;7.53;;
56481;SDS011;42384;45.186;19.958;2022-12-05T12:30:27;14.43;;;7.75;;
56481;SDS011;42384;45.186;19.958;2022-12-05T12:35:28;11.43;;;7.15;;
56481;SDS011;42384;45.186;19.958;2022-12-05T12:38:07;14.70;;;6.80;;
56481;SDS011;42384;45.186;19.958;2022-12-05T12:48:21;14.50;;;7.33;;
56481;SDS011;42384;45.186;19.958;2022-12-05T12:50:51;12.93;;;7.15;;
56481;SDS011;42384;45.186;19.958;2022-12-05T12:58:35;11.02;;;7.13;;
56481;SDS011;42384;45.186;19.958;2022-12-05T13:01:10;11.85;;;7.40;;
56481;SDS011;42384;45.186;19.958;2022-12-05T13:03:55;12.65;;;7.30;;
56481;SDS011;42384;45.186;19.958;2022-12-05T13:07:02;13.85;;;7.65;;
56481;SDS011;42384;45.186;19.958;2022-12-05T13:09:39;12.02;;;7.18;;
56481;SDS011;42384;45.186;19.958;2022-12-05T13:12:08;11.13;;;7.13;;
56481;SDS011;42384;45.186;19.958;2022-12-05T13:14:36;14.45;;;7.22;;
56481;SDS011;42384;45.186;19.958;2022-12-05T13:19:48;11.88;;;6.63;;
56481;SDS011;42384;45.186;19.958;2022-12-05T13:22:15;13.40;;;7.00;;
56481;SDS011;42384;45.186;19.958;2022-12-05T13:24:42;12.20;;;7.05;;
56481;SDS011;42384;45.186;19.958;2022-12-05T13:27:13;12.57;;;6.73;;
56481;SDS011;42384;45.186;19.958;2022-12-05T13:29:42;12.27;;;6.82;;
56481;SDS011;42384;45.186;19.958;2022-12-05T13:32:24;10.90;;;6.32;;
56481;SDS011;42384;45.186;19.958;2022-12-05T13:34:51;10.68;;;6.65;;
56481;SDS011;42384;45.186;19.958;2022-12-05T13:37:20;10.45;;;6.97;;
56481;SDS011;42384;45.186;19.958;2022-12-05T13:40:06;11.50;;;6.72;;
56481;SDS011;42384;45.186;19.958;2022-12-05T13:43:02;11.32;;;6.53;;
56481;SDS011;42384;45.186;19.958;2022-12-05T13:45:29;11.93;;;6.32;;
56481;SDS011;42384;45.186;19.958;2022-12-05T13:52:54;15.10;;;7.55;;
56481;SDS011;42384;45.186;19.958;2022-12-05T14:00:41;15.57;;;6.68;;
56481;SDS011;42384;45.186;19.958;2022-12-05T14:03:17;14.95;;;7.05;;
56481;SDS011;42384;45.186;19.958;2022-12-05T14:06:02;13.77;;;7.20;;
56481;SDS011;42384;45.186;19.958;2022-12-05T14:15:48;11.77;;;7.15;;
56481;SDS011;42384;45.186;19.958;2022-12-05T14:23:30;14.70;;;7.55;;
56481;SDS011;42384;45.186;19.958;2022-12-05T14:26:15;14.73;;;7.45;;
56481;SDS011;42384;45.186;19.958;2022-12-05T14:33:39;11.70;;;7.57;;
56481;SDS011;42384;45.186;19.958;2022-12-05T14:36:06;10.60;;;7.03;;
56481;SDS011;42384;45.186;19.958;2022-12-05T14:38:33;14.02;;;7.70;;
56481;SDS011;42384;45.186;19.958;2022-12-05T14:43:57;12.95;;;8.00;;
56481;SDS011;42384;45.186;19.958;2022-12-05T14:46:24;14.20;;;7.82;;
56481;SDS011;42384;45.186;19.958;2022-12-05T14:48:51;13.40;;;7.93;;
56481;SDS011;42384;45.186;19.958;2022-12-05T14:53:51;14.93;;;7.28;;
56481;SDS011;42384;45.186;19.958;2022-12-05T14:56:22;12.47;;;7.50;;
56481;SDS011;42384;45.186;19.958;2022-12-05T14:58:53;10.10;;;6.25;;
56481;SDS011;42384;45.186;19.958;2022-12-05T15:01:40;10.18;;;5.72;;
56481;SDS011;42384;45.186;19.958;2022-12-05T15:06:36;16.27;;;7.28;;
56481;SDS011;42384;45.186;19.958;2022-12-05T15:09:09;14.20;;;6.53;;
56481;SDS011;42384;45.186;19.958;2022-12-05T15:11:44;13.25;;;7.05;;
56481;SDS011;42384;45.186;19.958;2022-12-05T15:14:13;46.23;;;25.63;;
56481;SDS011;42384;45.186;19.958;2022-12-05T15:16:42;57.38;;;33.13;;
56481;SDS011;42384;45.186;19.958;2022-12-05T15:21:35;15.05;;;8.10;;
56481;SDS011;42384;45.186;19.958;2022-12-05T15:24:13;31.55;;;16.48;;
56481;SDS011;42384;45.186;19.958;2022-12-05T15:26:40;23.25;;;12.55;;
56481;SDS011;42384;45.186;19.958;2022-12-05T15:29:08;13.60;;;5.85;;
56481;SDS011;42384;45.186;19.958;2022-12-05T15:31:46;11.15;;;5.72;;
56481;SDS011;42384;45.186;19.958;2022-12-05T15:36:54;8.93;;;5.60;;
56481;SDS011;42384;45.186;19.958;2022-12-05T15:39:23;15.93;;;6.70;;
56481;SDS011;42384;45.186;19.958;2022-12-05T15:41:50;13.27;;;6.88;;
56481;SDS011;42384;45.186;19.958;2022-12-05T15:44:17;12.35;;;6.03;;
56481;SDS011;42384;45.186;19.958;2022-12-05T15:46:44;12.75;;;6.93;;
56481;SDS011;42384;45.186;19.958;2022-12-05T15:49:19;12.63;;;6.47;;
56481;SDS011;42384;45.186;19.958;2022-12-05T15:51:47;10.57;;;5.83;;
56481;SDS011;42384;45.186;19.958;2022-12-05T15:54:18;12.00;;;6.45;;
56481;SDS011;42384;45.186;19.958;2022-12-05T15:56:56;11.10;;;6.45;;
56481;SDS011;42384;45.186;19.958;2022-12-05T15:59:33;11.10;;;6.20;;
56481;SDS011;42384;45.186;19.958;2022-12-05T16:04:34;11.73;;;6.03;;
56481;SDS011;42384;45.186;19.958;2022-12-05T16:07:06;10.35;;;5.28;;
56481;SDS011;42384;45.186;19.958;2022-12-05T16:09:34;11.43;;;5.85;;
56481;SDS011;42384;45.186;19.958;2022-12-05T16:12:04;10.02;;;5.90;;
56481;SDS011;42384;45.186;19.958;2022-12-05T16:14:40;13.15;;;6.03;;
56481;SDS011;42384;45.186;19.958;2022-12-05T16:17:08;11.43;;;6.45;;
56481;SDS011;42384;45.186;19.958;2022-12-05T16:19:39;10.32;;;5.30;;
56481;SDS011;42384;45.186;19.958;2022-12-05T16:22:06;11.20;;;6.45;;
56481;SDS011;42384;45.186;19.958;2022-12-05T16:24:44;11.65;;;6.90;;
56481;SDS011;42384;45.186;19.958;2022-12-05T16:27:13;13.65;;;6.50;;
56481;SDS011;42384;45.186;19.958;2022-12-05T16:29:40;12.60;;;7.20;;
56481;SDS011;42384;45.186;19.958;2022-12-05T16:32:27;11.93;;;6.38;;
56481;SDS011;42384;45.186;19.958;2022-12-05T16:34:52;11.77;;;6.18;;
56481;SDS011;42384;45.186;19.958;2022-12-05T16:37:22;11.43;;;6.53;;
56481;SDS011;42384;45.186;19.958;2022-12-05T16:39:49;11.98;;;6.40;;
56481;SDS011;42384;45.186;19.958;2022-12-05T16:42:28;12.65;;;6.30;;
56481;SDS011;42384;45.186;19.958;2022-12-05T16:44:56;12.98;;;6.82;;
56481;SDS011;42384;45.186;19.958;2022-12-05T16:52:47;13.70;;;6.90;;
56481;SDS011;42384;45.186;19.958;2022-12-05T16:55:13;13.05;;;6.82;;
56481;SDS011;42384;45.186;19.958;2022-12-05T16:57:39;14.45;;;7.38;;
56481;SDS011;42384;45.186;19.958;2022-12-05T17:00:06;12.15;;;6.72;;
56481;SDS011;42384;45.186;19.958;2022-12-05T17:04:59;12.45;;;5.80;;
56481;SDS011;42384;45.186;19.958;2022-12-05T17:07:28;13.95;;;7.45;;
56481;SDS011;42384;45.186;19.958;2022-12-05T17:09:54;14.40;;;7.50;;